Time;durP1;ratioP1;P1;durP2;ratioP2;P2;SDS_P1;SDS_P2;PMS_P1;PMS_P2;Temp;Humidity;BMP_temperature;BMP_pressure;BME280_temperature;BME280_humidity;BME280_pressure;Samples;Min_cycle;Max_cycle;Signal;HPM_P1;HPM_P2
2022/05/30 00:03:10;;;;;;;3.03;2.07;;;;;;;12.57;52.34;97377.47;8448662;28;20229;-75
2022/05/30 00:07:13;;;;;;;5.57;2.30;;;;;;;12.49;52.74;97376.19;8449545;28;20415;-75
2022/05/30 00:11:17;;;;;;;4.67;2.20;;;;;;;12.41;52.93;97375.78;8449372;28;20226;-75
2022/05/30 00:15:21;;;;;;;4.90;2.40;;;;;;;12.38;53.32;97376.00;8448412;28;20234;-75
2022/05/30 00:19:26;;;;;;;4.83;2.47;;;;;;;12.40;52.74;97375.91;8448117;28;20226;-75
2022/05/30 00:23:29;;;;;;;5.07;2.77;;;;;;;12.32;52.65;97372.00;8448538;28;20297;-75
2022/05/30 00:27:32;;;;;;;4.43;2.50;;;;;;;12.21;52.90;97363.22;8448172;28;20230;-75
2022/05/30 00:31:35;;;;;;;4.37;2.30;;;;;;;12.20;52.67;97362.34;8448202;28;20240;-75
2022/05/30 00:35:41;;;;;;;3.80;2.50;;;;;;;12.08;52.96;97363.09;8447993;28;20240;-75
2022/05/30 00:39:43;;;;;;;5.53;2.60;;;;;;;12.06;53.11;97364.97;8447792;28;20527;-76
2022/05/30 00:43:46;;;;;;;3.50;2.10;;;;;;;12.00;53.34;97357.56;8447778;28;20226;-75
2022/05/30 00:47:50;;;;;;;4.77;2.77;;;;;;;11.95;53.15;97359.56;8447636;28;20226;-75
2022/05/30 00:51:56;;;;;;;4.70;2.40;;;;;;;11.93;53.16;97363.09;8447312;28;20230;-76
2022/05/30 00:55:59;;;;;;;5.77;3.00;;;;;;;11.94;53.22;97358.75;8447063;28;20233;-75
2022/05/30 01:00:08;;;;;;;4.77;2.40;;;;;;;11.87;53.20;97353.03;8447208;28;20225;-78
2022/05/30 01:08:37;;;;;;;4.97;2.13;;;;;;;11.81;53.33;97353.41;8446973;28;20481;-75
2022/05/30 01:12:44;;;;;;;8.17;2.63;;;;;;;11.80;52.83;97343.94;8446302;28;20234;-75
2022/05/30 01:16:48;;;;;;;3.20;2.00;;;;;;;11.62;53.23;97347.66;8447321;28;20226;-75
2022/05/30 01:21:15;;;;;;;3.27;2.23;;;;;;;11.67;52.44;97341.25;8447600;28;20406;-75
2022/05/30 01:25:33;;;;;;;3.77;2.30;;;;;;;11.65;52.67;97342.25;8447518;28;20222;-76
2022/05/30 01:29:40;;;;;;;3.93;2.63;;;;;;;11.65;52.79;97345.72;8463914;28;20236;-76
2022/05/30 01:33:43;;;;;;;6.50;2.23;;;;;;;11.60;52.86;97346.91;8447185;28;20226;-76
2022/05/30 01:37:46;;;;;;;4.60;2.30;;;;;;;11.59;52.03;97353.81;8447108;28;20391;-76
2022/05/30 01:41:49;;;;;;;3.00;2.17;;;;;;;11.42;52.60;97357.38;8447202;28;20302;-76
2022/05/30 01:45:53;;;;;;;4.57;2.47;;;;;;;11.35;53.14;97348.31;8446965;28;20233;-76
2022/05/30 01:49:56;;;;;;;3.20;2.30;;;;;;;11.42;52.99;97352.19;8447174;28;20284;-76
2022/05/30 01:53:59;;;;;;;4.10;2.43;;;;;;;11.31;53.01;97341.63;8446933;28;20412;-76
2022/05/30 01:58:02;;;;;;;4.27;2.40;;;;;;;11.39;52.49;97343.78;8446649;28;20280;-76
2022/05/30 02:02:06;;;;;;;3.57;2.20;;;;;;;11.23;52.56;97336.03;8446604;28;20226;-76
2022/05/30 02:06:10;;;;;;;4.07;2.20;;;;;;;11.23;52.47;97344.66;8446969;28;20540;-76
2022/05/30 02:10:13;;;;;;;5.07;2.60;;;;;;;11.10;52.79;97331.56;8446756;28;20280;-76
2022/05/30 02:14:15;;;;;;;3.70;2.40;;;;;;;10.99;53.04;97326.16;8446367;28;20233;-76
2022/05/30 02:18:20;;;;;;;3.97;2.20;;;;;;;11.01;52.98;97332.06;8446651;28;20237;-76
2022/05/30 02:22:23;;;;;;;4.63;2.40;;;;;;;10.94;53.04;97334.16;8446109;28;20226;-75
2022/05/30 02:26:26;;;;;;;3.50;2.10;;;;;;;10.89;53.55;97332.75;8451469;28;20226;-75
2022/05/30 02:30:29;;;;;;;3.40;2.10;;;;;;;10.96;53.05;97327.13;8452929;28;20551;-76
2022/05/30 02:38:53;;;;;;;5.93;2.63;;;;;;;10.91;53.47;97326.59;8452538;28;20230;-76
2022/05/30 02:42:56;;;;;;;4.10;2.40;;;;;;;10.85;53.61;97319.16;8452437;28;20226;-76
2022/05/30 02:46:59;;;;;;;2.50;2.17;;;;;;;10.83;53.60;97327.91;8452282;28;20340;-76
2022/05/30 02:51:04;;;;;;;3.73;2.37;;;;;;;10.75;53.36;97326.56;8452304;28;20226;-75
2022/05/30 02:55:08;;;;;;;5.30;2.23;;;;;;;10.61;53.63;97317.94;8452073;28;20241;-76
2022/05/30 02:59:11;;;;;;;3.93;2.13;;;;;;;10.72;53.66;97316.41;8451983;28;20249;-76
2022/05/30 03:03:13;;;;;;;5.20;2.40;;;;;;;10.67;53.76;97312.41;8451859;28;20233;-76
2022/05/30 03:07:18;;;;;;;3.57;2.50;;;;;;;10.67;53.55;97312.41;8451521;28;20567;-76
2022/05/30 03:11:21;;;;;;;5.30;2.43;;;;;;;10.65;54.02;97311.66;8451543;28;20229;-76
2022/05/30 03:15:24;;;;;;;2.87;2.30;;;;;;;10.74;52.95;97318.91;8450929;28;20233;-75
2022/05/30 03:19:30;;;;;;;4.00;1.97;;;;;;;10.68;52.60;97334.78;8451200;28;20230;-75
2022/05/30 03:23:34;;;;;;;3.90;2.20;;;;;;;10.63;52.99;97326.44;8451328;28;20222;-75
2022/05/30 03:27:38;;;;;;;4.63;3.07;;;;;;;10.66;53.61;97331.44;8451019;28;20236;-76
2022/05/30 03:31:41;;;;;;;5.30;3.10;;;;;;;10.72;53.96;97328.53;8451060;28;20226;-76
2022/05/30 03:35:44;;;;;;;6.73;5.00;;;;;;;10.53;55.79;97329.53;8449869;28;20226;-76
2022/05/30 03:39:48;;;;;;;8.90;4.97;;;;;;;10.78;55.70;97335.13;8450588;28;20226;-76
2022/05/30 03:43:51;;;;;;;5.43;4.17;;;;;;;10.79;55.31;97332.44;8450753;28;20236;-76
2022/05/30 03:47:54;;;;;;;9.83;5.13;;;;;;;10.76;56.06;97340.38;8450236;28;20230;-76
2022/05/30 03:51:59;;;;;;;5.47;4.00;;;;;;;10.76;56.85;97348.16;8450339;28;20233;-76
2022/05/30 03:56:04;;;;;;;6.23;4.13;;;;;;;10.96;57.12;97352.22;8449923;28;20237;-76
2022/05/30 04:00:08;;;;;;;4.73;4.23;;;;;;;10.89;57.70;97348.28;8449564;28;20226;-76
2022/05/30 04:04:12;;;;;;;5.07;4.57;;;;;;;10.78;58.30;97356.69;8449784;28;20237;-76
2022/05/30 04:08:15;;;;;;;5.53;4.33;;;;;;;10.91;58.12;97346.47;8449741;28;20241;-76
2022/05/30 04:12:21;;;;;;;9.20;4.83;;;;;;;11.08;57.63;97351.56;8449535;28;20293;-76
2022/05/30 04:16:24;;;;;;;5.47;4.63;;;;;;;11.03;58.19;97356.16;8449026;28;20509;-75
2022/05/30 04:20:28;;;;;;;5.60;4.13;;;;;;;11.02;58.21;97351.03;8449435;28;20234;-75
2022/05/30 04:24:31;;;;;;;4.50;4.10;;;;;;;11.07;58.38;97362.00;8449265;28;20228;-75
2022/05/30 04:28:35;;;;;;;6.27;4.63;;;;;;;11.03;58.25;97361.31;8449075;28;20230;-76
2022/05/30 04:32:39;;;;;;;4.03;3.63;;;;;;;11.11;58.21;97360.91;8448762;28;20224;-76
2022/05/30 04:36:41;;;;;;;4.40;4.00;;;;;;;11.06;58.46;97366.34;8448705;28;20233;-77
2022/05/30 04:40:45;;;;;;;12.00;4.53;;;;;;;11.03;58.65;97363.91;8448496;28;20226;-76
2022/05/30 04:44:50;;;;;;;11.70;4.43;;;;;;;11.06;58.47;97368.09;8448481;28;20241;-73
2022/05/30 04:48:52;;;;;;;47.63;5.73;;;;;;;11.12;58.96;97383.31;8448469;28;20253;-76
2022/05/30 04:52:55;;;;;;;10.67;9.57;;;;;;;11.12;59.74;97391.91;8448053;28;20222;-76
2022/05/30 04:56:58;;;;;;;58.87;6.50;;;;;;;10.91;59.22;97388.75;8448158;28;20230;-75
2022/05/30 05:01:06;;;;;;;24.70;5.90;;;;;;;10.95;59.84;97395.44;8447853;28;20420;-75
2022/05/30 05:05:10;;;;;;;7.53;5.70;;;;;;;11.06;60.27;97392.25;8447914;28;20224;-79
2022/05/30 05:09:31;;;;;;;6.73;5.90;;;;;;;11.29;60.24;97397.88;8447743;28;20225;-76
2022/05/30 05:13:34;;;;;;;16.97;6.07;;;;;;;11.11;60.31;97395.41;8447800;28;20233;-76
2022/05/30 05:17:45;;;;;;;17.13;7.10;;;;;;;11.32;60.61;97397.72;8447437;28;20249;-77
2022/05/30 05:21:50;;;;;;;26.93;7.30;;;;;;;11.38;60.44;97402.56;8447717;28;20228;-76
2022/05/30 05:25:53;;;;;;;11.27;7.20;;;;;;;11.55;60.38;97410.22;8447142;28;20221;-76
2022/05/30 05:29:56;;;;;;;13.67;7.47;;;;;;;11.65;59.46;97417.47;8447026;28;20214;-76
2022/05/30 05:34:01;;;;;;;10.93;6.90;;;;;;;11.49;60.43;97415.75;8447244;28;20230;-74
2022/05/30 05:38:04;;;;;;;10.27;7.90;;;;;;;11.60;59.61;97419.50;8446700;28;20222;-75
2022/05/30 05:42:08;;;;;;;9.87;8.37;;;;;;;11.57;59.74;97427.47;8446897;28;20226;-75
2022/05/30 05:46:13;;;;;;;7.20;6.50;;;;;;;11.72;59.99;97431.75;8446818;28;20236;-75
2022/05/30 05:50:19;;;;;;;9.80;7.00;;;;;;;11.75;59.24;97444.56;8446700;28;20529;-75
2022/05/30 05:54:23;;;;;;;30.40;6.87;;;;;;;11.45;59.05;97436.78;8446506;28;20222;-75
2022/05/30 05:58:26;;;;;;;7.93;6.77;;;;;;;11.57;60.02;97438.66;8446915;28;20241;-75
2022/05/30 06:02:30;;;;;;;10.23;7.50;;;;;;;11.57;60.19;97436.06;8453240;28;20226;-75
2022/05/30 06:06:35;;;;;;;7.43;6.70;;;;;;;11.96;59.04;97442.53;8453501;28;20228;-75
2022/05/30 06:14:57;;;;;;;8.17;7.27;;;;;;;12.10;59.26;97445.13;8452042;28;20234;-76
2022/05/30 06:19:01;;;;;;;9.20;7.47;;;;;;;12.20;59.06;97452.38;8453025;28;20248;-76
2022/05/30 06:23:06;;;;;;;9.03;7.17;;;;;;;12.19;59.22;97448.97;8452629;28;20255;-82
2022/05/30 06:27:10;;;;;;;8.90;6.50;;;;;;;12.35;58.60;97458.44;8452638;28;20226;-76
2022/05/30 06:31:14;;;;;;;7.53;6.63;;;;;;;12.47;58.13;97447.28;8452578;28;20230;-76
2022/05/30 06:35:17;;;;;;;7.87;6.90;;;;;;;12.60;57.92;97450.81;8452463;28;20271;-76
2022/05/30 06:39:22;;;;;;;9.60;7.60;;;;;;;12.37;58.61;97449.63;8452112;28;20245;-76
2022/05/30 06:43:25;;;;;;;9.40;7.10;;;;;;;12.68;57.87;97446.00;8451598;28;20217;-76
2022/05/30 06:47:28;;;;;;;10.17;7.70;;;;;;;12.87;57.21;97448.31;8452056;28;20222;-76
2022/05/30 06:51:33;;;;;;;9.87;8.87;;;;;;;12.90;57.37;97445.50;8451978;28;20236;-76
2022/05/30 06:55:37;;;;;;;10.53;9.17;;;;;;;13.14;56.51;97444.09;8451836;28;20222;-76
2022/05/30 06:59:40;;;;;;;11.77;8.80;;;;;;;13.45;55.52;97448.19;8451514;28;20244;-76
2022/05/30 07:03:44;;;;;;;11.67;9.80;;;;;;;13.85;54.67;97446.44;8451441;28;20222;-76
2022/05/30 07:07:47;;;;;;;10.83;9.73;;;;;;;13.84;54.79;97451.72;8451473;28;20241;-76
2022/05/30 07:11:51;;;;;;;11.40;10.23;;;;;;;14.12;54.25;97450.75;8449905;28;20226;-75
2022/05/30 07:15:54;;;;;;;10.70;9.30;;;;;;;13.87;54.01;97459.34;8451261;28;20226;-76
2022/05/30 07:19:58;;;;;;;12.33;9.00;;;;;;;14.41;53.26;97466.19;8451168;28;20233;-76
2022/05/30 07:24:01;;;;;;;10.67;8.97;;;;;;;14.58;53.67;97465.91;8450916;28;20221;-76
2022/05/30 07:28:06;;;;;;;11.53;8.47;;;;;;;15.11;52.01;97463.09;8451001;28;20226;-76
2022/05/30 07:32:13;;;;;;;8.63;7.73;;;;;;;15.41;51.82;97465.28;8450392;28;20475;-76
2022/05/30 07:36:18;;;;;;;8.97;7.07;;;;;;;15.88;50.35;97469.78;8450720;28;20234;-76
2022/05/30 07:40:22;;;;;;;8.43;7.50;;;;;;;15.95;50.31;97463.19;8466892;28;20426;-74
2022/05/30 07:44:33;;;;;;;7.83;6.70;;;;;;;16.51;48.02;97471.16;8467052;28;20548;-76
2022/05/30 07:48:36;;;;;;;9.23;6.60;;;;;;;16.72;47.04;97457.38;8466961;28;20232;-76
2022/05/30 07:52:39;;;;;;;12.07;7.17;;;;;;;16.57;47.95;97455.00;8467073;28;20240;-76
2022/05/30 07:56:42;;;;;;;6.80;5.30;;;;;;;17.04;45.73;97449.66;8466946;28;20242;-75
2022/05/30 08:00:51;;;;;;;7.73;5.30;;;;;;;17.53;44.16;97450.13;8466507;28;20237;-75
2022/05/30 08:04:53;;;;;;;9.57;4.90;;;;;;;17.83;43.34;97452.03;8445716;28;20226;-76
2022/05/30 08:08:57;;;;;;;8.17;5.20;;;;;;;18.01;43.33;97449.75;8449611;28;20416;-76
2022/05/30 08:13:00;;;;;;;9.47;5.40;;;;;;;18.23;43.27;97451.38;8449453;28;20432;-76
2022/05/30 08:17:05;;;;;;;6.50;4.50;;;;;;;18.49;41.44;97456.25;8448899;28;20226;-76
2022/05/30 08:21:08;;;;;;;5.53;4.17;;;;;;;18.85;41.33;97459.31;8449102;28;20234;-76
2022/05/30 08:25:14;;;;;;;7.87;4.60;;;;;;;18.88;40.38;97461.69;8448995;28;20319;-76
2022/05/30 08:29:18;;;;;;;7.17;4.30;;;;;;;18.82;39.52;97451.72;8448963;28;20234;-76
2022/05/30 08:33:23;;;;;;;3.67;2.10;;;;;;;19.00;45.19;97449.28;8447975;28;20231;-76
2022/05/30 08:37:30;;;;;;;8.20;4.17;;;;;;;19.63;42.64;97454.22;8453657;28;20242;-75
2022/05/30 08:41:48;;;;;;;6.90;3.13;;;;;;;19.88;41.40;97450.28;8456258;28;20230;-75
2022/05/30 08:45:53;;;;;;;4.60;3.00;;;;;;;20.27;38.02;97444.97;8455020;28;20230;-75
2022/05/30 08:50:04;;;;;;;5.23;2.40;;;;;;;20.50;36.24;97443.69;8462267;28;20237;-75
2022/05/30 08:54:25;;;;;;;5.93;2.60;;;;;;;20.67;35.77;97438.66;8465166;28;20226;-75
2022/05/30 08:58:43;;;;;;;9.40;2.30;;;;;;;20.42;30.84;97450.59;8452540;28;20553;-78
2022/05/30 09:02:49;;;;;;;5.10;2.20;;;;;;;19.62;34.19;97442.09;8461336;28;20533;-75
2022/05/30 09:06:58;;;;;;;6.43;2.50;;;;;;;20.43;32.49;97433.88;8448064;28;20234;-75
2022/05/30 09:11:04;;;;;;;7.67;1.90;;;;;;;20.79;33.45;97432.25;8447655;28;20226;-75
2022/05/30 09:15:11;;;;;;;3.50;1.70;;;;;;;21.30;32.76;97435.28;8447602;28;20233;-75
2022/05/30 09:19:15;;;;;;;3.53;2.00;;;;;;;21.52;31.76;97431.44;8447415;28;20474;-75
2022/05/30 09:23:23;;;;;;;4.13;2.07;;;;;;;21.88;31.12;97436.69;8447312;28;20247;-76
2022/05/30 09:27:27;;;;;;;5.80;2.03;;;;;;;22.01;30.24;97420.50;8447120;28;20223;-75
2022/05/30 09:31:39;;;;;;;6.40;1.93;;;;;;;22.12;30.48;97419.41;8447409;28;20227;-75
2022/05/30 09:35:43;;;;;;;4.87;1.80;;;;;;;21.69;28.42;97424.50;8446395;28;20244;-75
2022/05/30 09:39:48;;;;;;;6.63;1.80;;;;;;;22.22;29.83;97423.59;8447026;28;20229;-74
2022/05/30 09:43:54;;;;;;;8.57;2.00;;;;;;;22.21;29.50;97423.75;8448254;28;20228;-76
2022/05/30 09:48:01;;;;;;;5.60;2.00;;;;;;;22.73;28.81;97421.13;8446908;28;20261;-75
2022/05/30 09:52:22;;;;;;;3.33;1.57;;;;;;;21.64;30.18;97424.94;8446790;28;20234;-79
2022/05/30 09:56:28;;;;;;;2.80;1.40;;;;;;;21.81;29.64;97414.56;8446428;28;20241;-78
2022/05/30 10:00:39;;;;;;;5.10;1.50;;;;;;;22.16;27.89;97415.47;8450343;28;20229;-77
2022/05/30 10:04:43;;;;;;;3.10;1.53;;;;;;;22.42;26.68;97429.50;8445722;28;20279;-78
2022/05/30 10:08:47;;;;;;;4.17;1.53;;;;;;;22.72;27.00;97424.72;8446903;28;20268;-78
2022/05/30 10:12:58;;;;;;;4.07;1.70;;;;;;;23.13;26.21;97418.81;8446021;28;20234;-78
2022/05/30 10:17:11;;;;;;;3.10;1.70;;;;;;;23.34;25.83;97415.72;8446380;28;20226;-78
2022/05/30 10:21:29;;;;;;;2.50;1.57;;;;;;;23.36;23.57;97422.50;8446420;28;20551;-78
2022/05/30 10:30:15;;;;;;;1.87;1.30;;;;;;;23.78;25.84;97421.59;8446583;28;20232;-77
2022/05/30 10:34:53;;;;;;;1.73;1.30;;;;;;;24.38;24.83;97417.72;8446300;28;20437;-77
2022/05/30 10:39:06;;;;;;;3.27;1.73;;;;;;;24.56;24.85;97427.31;8446468;28;20442;-78
2022/05/30 10:43:12;;;;;;;1.97;1.50;;;;;;;23.87;25.09;97411.84;8446500;28;20234;-78
2022/05/30 10:47:20;;;;;;;2.20;1.20;;;;;;;23.47;25.39;97418.72;8451235;28;20225;-78
2022/05/30 10:51:26;;;;;;;5.07;1.90;;;;;;;23.34;25.94;97426.28;8451764;28;20411;-77
2022/05/30 10:55:34;;;;;;;3.27;1.50;;;;;;;22.84;25.84;97427.91;8451867;28;20294;-77
2022/05/30 10:59:40;;;;;;;2.43;1.40;;;;;;;22.03;27.01;97413.25;8452019;28;20226;-76
2022/05/30 11:03:47;;;;;;;4.17;1.80;;;;;;;21.88;28.91;97422.69;8451515;28;20221;-76
2022/05/30 11:07:55;;;;;;;7.07;1.60;;;;;;;21.94;29.75;97422.91;8451384;28;20230;-76
2022/05/30 11:12:03;;;;;;;4.27;1.80;;;;;;;21.75;28.82;97431.81;8448162;28;20575;-76
2022/05/30 11:16:10;;;;;;;3.23;1.50;;;;;;;23.29;26.72;97426.78;8451053;28;20225;-75
2022/05/30 11:20:17;;;;;;;4.30;1.90;;;;;;;23.86;26.38;97428.72;8451377;28;20307;-77
2022/05/30 11:24:20;;;;;;;4.70;1.60;;;;;;;23.32;26.32;97426.47;8451318;28;20237;-77
2022/05/30 11:28:31;;;;;;;2.57;1.20;;;;;;;23.64;24.85;97430.13;8450543;28;20221;-76
2022/05/30 11:32:47;;;;;;;1.83;1.20;;;;;;;23.62;25.28;97432.13;8450692;28;20237;-77
2022/05/30 11:37:24;;;;;;;3.50;1.33;;;;;;;23.16;24.01;97424.59;8451033;28;20245;-77
2022/05/30 11:41:48;;;;;;;1.73;1.20;;;;;;;22.34;25.78;97429.47;8449763;28;20233;-76
2022/05/30 11:45:55;;;;;;;2.20;1.40;;;;;;;22.33;25.75;97432.25;8450254;28;20230;-77
2022/05/30 11:50:07;;;;;;;3.57;1.60;;;;;;;22.18;26.80;97430.16;8450167;28;20222;-73
2022/05/30 11:54:25;;;;;;;2.63;1.33;;;;;;;22.73;26.11;97426.41;8450516;28;20230;-75
2022/05/30 11:58:37;;;;;;;3.07;1.03;;;;;;;21.95;25.69;97432.47;8448857;28;20235;-75
2022/05/30 12:03:24;;;;;;;1.50;1.30;;;;;;;22.13;24.29;97431.63;8449714;28;20279;-79
2022/05/30 12:07:52;;;;;;;2.50;1.30;;;;;;;21.56;26.21;97431.97;8443144;28;20238;-76
2022/05/30 12:12:16;;;;;;;1.93;1.33;;;;;;;21.27;26.61;97432.97;8446727;28;20408;-76
2022/05/30 12:16:26;;;;;;;2.73;1.50;;;;;;;22.25;26.30;97422.47;8449475;28;20230;-78
2022/05/30 12:25:00;;;;;;;1.73;1.17;;;;;;;23.64;24.32;97424.03;8449428;28;20218;-78
2022/05/30 12:29:31;;;;;;;2.20;1.40;;;;;;;23.27;23.66;97422.66;8449423;28;20227;-77
2022/05/30 12:33:47;;;;;;;5.83;1.40;;;;;;;22.59;25.21;97427.78;8448823;28;20248;-77
2022/05/30 12:37:52;;;;;;;3.73;1.20;;;;;;;22.28;27.54;97437.19;8448224;28;20415;-77
2022/05/30 12:41:58;;;;;;;5.10;1.40;;;;;;;21.46;28.66;97432.03;8445771;28;20323;-78
2022/05/30 12:46:15;;;;;;;3.53;1.43;;;;;;;21.33;28.36;97434.16;8448136;28;20226;-76
2022/05/30 12:51:01;;;;;;;4.80;1.60;;;;;;;21.68;26.27;97428.09;8448787;28;20408;-80
2022/05/30 12:55:11;;;;;;;2.60;1.50;;;;;;;22.06;24.79;97429.56;8447545;28;20230;-78
2022/05/30 12:59:19;;;;;;;3.17;1.40;;;;;;;21.70;27.97;97433.22;8448553;28;20232;-78
2022/05/30 13:03:39;;;;;;;4.83;1.40;;;;;;;22.02;27.47;97432.69;8447307;28;20233;-77
2022/05/30 13:07:42;;;;;;;2.50;1.10;;;;;;;22.55;27.42;97437.00;8447838;28;20252;-77
2022/05/30 13:12:18;;;;;;;7.10;1.60;;;;;;;22.93;27.69;97428.78;8447202;28;20234;-77
2022/05/30 13:16:27;;;;;;;2.73;1.23;;;;;;;23.79;25.36;97441.75;8447361;28;20428;-79
2022/05/30 13:20:39;;;;;;;4.07;1.30;;;;;;;24.11;23.83;97447.22;8446502;28;20536;-77
2022/05/30 13:24:42;;;;;;;3.07;1.20;;;;;;;23.80;24.30;97445.25;8446717;28;20544;-77
2022/05/30 13:28:49;;;;;;;3.50;1.37;;;;;;;23.50;25.40;97438.72;8446472;28;20226;-77
2022/05/30 13:32:52;;;;;;;3.37;1.23;;;;;;;22.66;24.90;97457.03;8444411;28;20232;-77
2022/05/30 13:36:59;;;;;;;2.30;1.30;;;;;;;23.15;25.38;97445.88;8447076;28;20240;-77
2022/05/30 13:41:12;;;;;;;1.70;1.10;;;;;;;22.03;25.74;97447.53;8447022;28;20238;-77
2022/05/30 13:45:19;;;;;;;1.57;1.00;;;;;;;21.65;25.49;97458.22;8446748;28;20234;-77
2022/05/30 13:49:36;;;;;;;1.27;0.90;;;;;;;21.57;25.76;97455.53;8463387;28;20249;-76
2022/05/30 13:53:41;;;;;;;4.00;1.07;;;;;;;21.55;28.21;97457.47;8463595;28;20230;-76
2022/05/30 13:57:44;;;;;;;2.00;1.30;;;;;;;21.60;27.12;97460.47;8463756;28;20221;-76
2022/05/30 14:01:47;;;;;;;1.77;1.03;;;;;;;22.12;26.01;97458.94;8459913;28;20240;-77
2022/05/30 14:05:51;;;;;;;3.00;1.10;;;;;;;21.90;26.76;97462.91;8463541;28;20230;-78
2022/05/30 14:09:57;;;;;;;2.40;1.10;;;;;;;21.71;25.87;97462.06;8446556;28;20230;-78
2022/05/30 14:14:00;;;;;;;2.20;1.10;;;;;;;21.47;26.45;97466.09;8446450;28;20234;-77
2022/05/30 14:18:24;;;;;;;5.50;1.30;;;;;;;21.64;26.85;97468.91;8446551;28;20338;-76
2022/05/30 14:22:27;;;;;;;1.73;1.00;;;;;;;21.84;26.06;97461.69;8451258;28;20229;-77
2022/05/30 14:26:36;;;;;;;3.20;1.20;;;;;;;22.26;25.51;97461.06;8452900;28;20240;-77
2022/05/30 14:30:39;;;;;;;1.60;1.00;;;;;;;21.82;28.08;97464.47;8452902;28;20230;-78
2022/05/30 14:34:43;;;;;;;4.67;0.80;;;;;;;21.27;28.68;97470.66;8452723;28;20525;-78
2022/05/30 14:38:47;;;;;;;6.13;0.83;;;;;;;20.91;30.06;97475.00;8452273;28;20218;-77
2022/05/30 14:42:53;;;;;;;2.67;1.30;;;;;;;20.58;30.76;97471.03;8452334;28;20240;-78
2022/05/30 14:46:56;;;;;;;1.37;1.00;;;;;;;20.64;30.78;97481.03;8452438;28;20237;-78
2022/05/30 14:51:03;;;;;;;2.93;1.10;;;;;;;20.82;32.25;97483.75;8452132;28;20233;-79
2022/05/30 14:55:12;;;;;;;4.87;1.30;;;;;;;21.27;34.22;97481.19;8452246;28;20226;-77
2022/05/30 14:59:33;;;;;;;6.03;1.60;;;;;;;20.50;35.89;97483.13;8452046;28;20328;-78
2022/05/30 15:07:59;;;;;;;9.33;1.50;;;;;;;20.51;37.64;97476.88;8451472;28;20237;-77
2022/05/30 15:12:02;;;;;;;8.63;1.60;;;;;;;20.65;38.55;97486.13;8451099;28;20552;-79
2022/05/30 15:16:06;;;;;;;3.07;1.10;;;;;;;20.46;37.09;97491.44;8451233;28;20222;-79
2022/05/30 15:20:10;;;;;;;5.57;1.70;;;;;;;20.44;37.65;97493.38;8451088;28;20222;-79
2022/05/30 15:24:15;;;;;;;2.80;1.10;;;;;;;19.80;33.53;97495.63;8451225;28;20542;-79
2022/05/30 15:28:17;;;;;;;2.07;1.10;;;;;;;20.06;36.32;97495.91;8451103;28;20403;-79
2022/05/30 15:32:24;;;;;;;1.97;1.03;;;;;;;20.15;38.20;97496.06;8449931;28;20226;-79
2022/05/30 15:36:27;;;;;;;3.17;1.00;;;;;;;20.02;36.58;97491.06;8450234;28;20320;-79
2022/05/30 15:40:40;;;;;;;3.03;1.17;;;;;;;20.52;35.03;97488.22;8450329;28;20306;-79
2022/05/30 15:44:52;;;;;;;1.67;1.10;;;;;;;20.79;33.09;97484.03;8450342;28;20576;-79
2022/05/30 15:48:57;;;;;;;1.27;0.90;;;;;;;20.97;30.84;97479.66;8450589;28;20298;-78
2022/05/30 15:57:30;;;;;;;2.33;0.90;;;;;;;21.21;30.76;97486.19;8449184;28;20218;-79
2022/05/30 16:01:33;;;;;;;3.63;0.90;;;;;;;20.93;31.99;97477.47;8448888;28;20226;-79
2022/05/30 16:05:38;;;;;;;1.90;1.10;;;;;;;21.19;30.41;97482.88;8454227;28;20228;-81
2022/05/30 16:09:47;;;;;;;5.80;1.27;;;;;;;21.17;30.01;97471.66;8453551;28;20236;-80
2022/05/30 16:13:50;;;;;;;1.07;0.90;;;;;;;21.14;30.64;97478.06;8451272;28;20245;-79
2022/05/30 16:17:53;;;;;;;2.37;0.90;;;;;;;21.07;30.94;97488.34;8444817;28;20234;-78
2022/05/30 16:21:58;;;;;;;3.43;1.63;;;;;;;20.99;32.21;97490.06;8477276;28;20402;-79
2022/05/30 16:26:04;;;;;;;2.93;1.47;;;;;;;20.98;31.95;97486.59;8483083;28;20225;-78
2022/05/30 16:30:08;;;;;;;2.57;0.90;;;;;;;20.96;30.94;97485.91;8468047;28;20234;-78
2022/05/30 16:34:13;;;;;;;3.27;1.87;;;;;;;21.01;31.43;97488.09;8465955;28;20239;-79
2022/05/30 16:38:18;;;;;;;1.33;0.90;;;;;;;20.88;32.06;97488.41;8465739;28;20456;-79
2022/05/30 16:42:21;;;;;;;5.67;1.20;;;;;;;20.97;32.00;97484.94;8465351;28;20229;-78
2022/05/30 16:46:26;;;;;;;5.23;1.30;;;;;;;20.46;36.13;97499.31;8456938;28;20523;-78
2022/05/30 16:50:30;;;;;;;3.27;1.20;;;;;;;20.53;33.41;97510.13;8465409;28;20293;-77
2022/05/30 16:54:35;;;;;;;43.80;4.00;;;;;;;20.56;31.10;97509.81;8463797;28;20230;-77
2022/05/30 16:58:38;;;;;;;4.83;0.80;;;;;;;20.63;34.21;97516.19;8448076;28;20234;-77
2022/05/30 17:02:42;;;;;;;3.93;1.20;;;;;;;20.37;34.75;97518.56;8447628;28;20243;-77
2022/05/30 17:06:45;;;;;;;4.03;1.30;;;;;;;20.27;35.00;97521.22;8447372;28;20230;-78
2022/05/30 17:10:49;;;;;;;6.60;1.10;;;;;;;20.05;32.92;97519.72;8447524;28;20236;-78
2022/05/30 17:14:52;;;;;;;6.53;1.60;;;;;;;19.89;36.64;97526.31;8447273;28;20228;-77
2022/05/30 17:18:55;;;;;;;2.17;0.80;;;;;;;19.57;33.48;97521.25;8447697;28;20245;-74
2022/05/30 17:22:58;;;;;;;8.47;1.30;;;;;;;19.47;33.42;97523.06;8447432;28;20241;-76
2022/05/30 17:31:27;;;;;;;8.83;1.50;;;;;;;19.51;37.15;97535.81;8413471;28;20238;-74
2022/05/30 17:35:30;;;;;;;9.43;2.00;;;;;;;19.58;40.34;97532.63;8413540;28;20226;-78
2022/05/30 17:39:33;;;;;;;1.13;0.80;;;;;;;19.36;33.73;97533.66;8413998;28;20230;-78
2022/05/30 17:43:37;;;;;;;1.50;0.90;;;;;;;19.28;34.05;97531.72;8447163;28;20231;-79
2022/05/30 17:47:44;;;;;;;1.33;0.70;;;;;;;19.21;33.62;97536.66;8447303;28;20229;-79
2022/05/30 17:51:56;;;;;;;2.90;0.70;;;;;;;19.19;33.37;97532.50;8447515;28;20464;-79
2022/05/30 17:56:07;;;;;;;1.63;0.80;;;;;;;19.11;33.87;97536.63;8450036;28;20237;-79
2022/05/30 18:00:15;;;;;;;4.00;0.90;;;;;;;19.00;33.97;97538.50;8454487;28;20233;-79
2022/05/30 18:04:19;;;;;;;3.77;0.90;;;;;;;18.96;34.47;97537.94;8454262;28;20230;-82
2022/05/30 18:08:24;;;;;;;2.40;0.90;;;;;;;19.00;34.42;97543.75;8453279;28;20230;-76
2022/05/30 18:12:33;;;;;;;5.33;0.83;;;;;;;18.93;35.00;97551.31;8452829;28;20234;-78
2022/05/30 18:16:42;;;;;;;1.97;1.00;;;;;;;18.73;34.46;97548.56;8452856;28;20236;-79
2022/05/30 18:21:10;;;;;;;3.17;1.30;;;;;;;18.70;35.33;97548.00;8453204;28;20225;-77
2022/05/30 18:25:15;;;;;;;2.43;1.50;;;;;;;18.60;35.11;97550.56;8451913;28;20234;-77
2022/05/30 18:29:19;;;;;;;1.57;1.00;;;;;;;18.56;35.53;97557.84;8453012;28;20234;-77
2022/05/30 18:33:28;;;;;;;3.23;1.40;;;;;;;18.41;35.23;97567.00;8453053;28;20222;-77
2022/05/30 18:37:36;;;;;;;3.23;2.00;;;;;;;18.37;35.83;97562.94;8445280;28;20236;-77
2022/05/30 18:41:44;;;;;;;5.50;1.93;;;;;;;18.26;36.48;97570.84;8452439;28;20525;-78
2022/05/30 18:45:51;;;;;;;4.63;1.30;;;;;;;18.28;39.00;97575.03;8451627;28;20226;-79
2022/05/30 18:50:01;;;;;;;2.20;0.90;;;;;;;18.15;37.47;97574.38;8451416;28;20218;-77
2022/05/30 18:54:04;;;;;;;2.30;0.93;;;;;;;18.11;37.28;97586.06;8451692;28;20230;-78
2022/05/30 18:58:11;;;;;;;1.23;0.70;;;;;;;17.96;37.62;97590.75;8451144;28;20422;-78
2022/05/30 19:02:15;;;;;;;3.17;0.70;;;;;;;17.96;37.88;97588.13;8450863;28;20226;-78
2022/05/30 19:06:19;;;;;;;1.80;0.70;;;;;;;17.84;37.85;97595.19;8451146;28;20225;-78
2022/05/30 19:10:24;;;;;;;1.77;1.00;;;;;;;17.81;37.90;97598.00;8450637;28;20229;-77
2022/05/30 19:14:35;;;;;;;2.17;1.10;;;;;;;17.77;38.06;97607.91;8433697;28;20230;-78
2022/05/30 19:18:42;;;;;;;1.10;0.93;;;;;;;17.64;38.27;97607.19;8428405;28;20226;-77
2022/05/30 19:22:49;;;;;;;1.97;1.10;;;;;;;17.57;38.59;97611.25;8419697;28;20442;-77
2022/05/30 19:26:52;;;;;;;1.73;1.00;;;;;;;17.51;38.80;97611.72;8450907;28;20543;-77
2022/05/30 19:30:57;;;;;;;1.13;0.90;;;;;;;17.39;39.20;97616.97;8450777;28;20410;-78
2022/05/30 19:35:00;;;;;;;1.83;0.90;;;;;;;17.32;39.14;97621.00;8450860;28;20543;-77
2022/05/30 19:39:05;;;;;;;2.80;1.77;;;;;;;17.35;39.50;97628.63;8450674;28;20233;-77
2022/05/30 19:43:08;;;;;;;4.60;3.57;;;;;;;17.31;39.22;97636.84;8450440;28;20226;-77
2022/05/30 19:47:12;;;;;;;4.23;3.30;;;;;;;17.13;40.19;97636.47;8450401;28;20238;-77
2022/05/30 19:51:15;;;;;;;1.87;1.10;;;;;;;17.14;40.74;97644.19;8450181;28;20230;-77
2022/05/30 19:55:20;;;;;;;3.77;1.00;;;;;;;17.02;41.65;97649.53;8449927;28;20251;-77